sensor_id;sensor_type;location;lat;lon;timestamp;P1;durP1;ratioP1;P2;durP2;ratioP2
43676;SDS011;29275;48.800;18.102;2023-05-07T00:00:33;22.80;;;11.77;;
43676;SDS011;29275;48.800;18.102;2023-05-07T00:03:36;18.30;;;11.70;;
43676;SDS011;29275;48.800;18.102;2023-05-07T00:06:40;16.02;;;10.48;;
43676;SDS011;29275;48.800;18.102;2023-05-07T00:09:43;13.85;;;9.95;;
43676;SDS011;29275;48.800;18.102;2023-05-07T00:12:46;13.38;;;8.80;;
43676;SDS011;29275;48.800;18.102;2023-05-07T00:15:49;13.15;;;8.32;;
43676;SDS011;29275;48.800;18.102;2023-05-07T00:18:52;11.70;;;8.18;;
43676;SDS011;29275;48.800;18.102;2023-05-07T00:21:55;12.73;;;7.90;;
43676;SDS011;29275;48.800;18.102;2023-05-07T00:24:58;12.20;;;7.72;;
43676;SDS011;29275;48.800;18.102;2023-05-07T00:28:01;14.32;;;9.32;;
43676;SDS011;29275;48.800;18.102;2023-05-07T00:31:06;13.45;;;8.88;;
43676;SDS011;29275;48.800;18.102;2023-05-07T00:34:08;16.50;;;9.73;;
43676;SDS011;29275;48.800;18.102;2023-05-07T00:37:11;15.13;;;9.20;;
43676;SDS011;29275;48.800;18.102;2023-05-07T00:40:14;15.00;;;8.73;;
43676;SDS011;29275;48.800;18.102;2023-05-07T00:43:17;15.95;;;8.93;;
43676;SDS011;29275;48.800;18.102;2023-05-07T00:46:20;13.02;;;9.00;;
43676;SDS011;29275;48.800;18.102;2023-05-07T00:49:29;15.07;;;8.63;;
43676;SDS011;29275;48.800;18.102;2023-05-07T00:52:40;14.18;;;7.75;;
43676;SDS011;29275;48.800;18.102;2023-05-07T00:55:44;15.88;;;8.48;;
43676;SDS011;29275;48.800;18.102;2023-05-07T00:58:47;14.23;;;9.10;;
43676;SDS011;29275;48.800;18.102;2023-05-07T01:01:51;11.95;;;8.93;;
43676;SDS011;29275;48.800;18.102;2023-05-07T01:04:54;15.80;;;9.98;;
43676;SDS011;29275;48.800;18.102;2023-05-07T01:07:58;15.93;;;10.30;;
43676;SDS011;29275;48.800;18.102;2023-05-07T01:11:01;15.43;;;10.70;;
43676;SDS011;29275;48.800;18.102;2023-05-07T01:14:04;15.55;;;11.73;;
43676;SDS011;29275;48.800;18.102;2023-05-07T01:17:07;18.77;;;12.00;;
43676;SDS011;29275;48.800;18.102;2023-05-07T01:20:11;17.92;;;11.65;;
43676;SDS011;29275;48.800;18.102;2023-05-07T01:23:16;18.70;;;12.77;;
43676;SDS011;29275;48.800;18.102;2023-05-07T01:26:20;17.27;;;11.85;;
43676;SDS011;29275;48.800;18.102;2023-05-07T01:29:25;17.98;;;12.18;;
43676;SDS011;29275;48.800;18.102;2023-05-07T01:35:54;19.05;;;12.52;;
43676;SDS011;29275;48.800;18.102;2023-05-07T01:38:57;17.20;;;12.45;;
43676;SDS011;29275;48.800;18.102;2023-05-07T01:42:01;18.20;;;12.63;;
43676;SDS011;29275;48.800;18.102;2023-05-07T01:45:04;19.98;;;12.18;;
43676;SDS011;29275;48.800;18.102;2023-05-07T01:48:09;17.70;;;12.95;;
43676;SDS011;29275;48.800;18.102;2023-05-07T01:51:12;19.85;;;12.48;;
43676;SDS011;29275;48.800;18.102;2023-05-07T01:54:15;18.48;;;12.98;;
43676;SDS011;29275;48.800;18.102;2023-05-07T01:57:19;26.88;;;13.23;;
43676;SDS011;29275;48.800;18.102;2023-05-07T02:00:21;21.55;;;13.20;;
43676;SDS011;29275;48.800;18.102;2023-05-07T02:03:24;18.48;;;12.68;;
43676;SDS011;29275;48.800;18.102;2023-05-07T02:06:37;20.83;;;12.43;;
43676;SDS011;29275;48.800;18.102;2023-05-07T02:09:41;15.82;;;12.32;;
43676;SDS011;29275;48.800;18.102;2023-05-07T02:12:45;21.02;;;12.85;;
43676;SDS011;29275;48.800;18.102;2023-05-07T02:15:49;20.70;;;13.15;;
43676;SDS011;29275;48.800;18.102;2023-05-07T02:18:53;19.70;;;13.25;;
43676;SDS011;29275;48.800;18.102;2023-05-07T02:21:56;20.38;;;13.07;;
43676;SDS011;29275;48.800;18.102;2023-05-07T02:25:04;20.13;;;13.80;;
43676;SDS011;29275;48.800;18.102;2023-05-07T02:28:07;26.80;;;14.88;;
43676;SDS011;29275;48.800;18.102;2023-05-07T02:31:18;21.92;;;14.15;;
43676;SDS011;29275;48.800;18.102;2023-05-07T02:34:20;24.98;;;13.85;;
43676;SDS011;29275;48.800;18.102;2023-05-07T02:37:23;20.95;;;12.52;;
43676;SDS011;29275;48.800;18.102;2023-05-07T02:40:26;20.23;;;12.00;;
43676;SDS011;29275;48.800;18.102;2023-05-07T02:43:29;18.85;;;12.48;;
43676;SDS011;29275;48.800;18.102;2023-05-07T02:46:32;17.00;;;12.20;;
43676;SDS011;29275;48.800;18.102;2023-05-07T02:49:40;18.15;;;11.80;;
43676;SDS011;29275;48.800;18.102;2023-05-07T02:52:43;19.05;;;12.40;;
43676;SDS011;29275;48.800;18.102;2023-05-07T02:55:46;26.00;;;12.82;;
43676;SDS011;29275;48.800;18.102;2023-05-07T02:58:48;17.15;;;11.73;;
43676;SDS011;29275;48.800;18.102;2023-05-07T03:01:53;18.05;;;13.10;;
43676;SDS011;29275;48.800;18.102;2023-05-07T03:04:56;27.30;;;14.90;;
43676;SDS011;29275;48.800;18.102;2023-05-07T03:07:58;23.30;;;15.10;;
43676;SDS011;29275;48.800;18.102;2023-05-07T03:11:01;24.15;;;15.07;;
43676;SDS011;29275;48.800;18.102;2023-05-07T03:14:04;25.58;;;15.02;;
43676;SDS011;29275;48.800;18.102;2023-05-07T03:17:07;24.85;;;15.70;;
43676;SDS011;29275;48.800;18.102;2023-05-07T03:20:10;26.63;;;15.27;;
43676;SDS011;29275;48.800;18.102;2023-05-07T03:23:15;24.02;;;13.73;;
43676;SDS011;29275;48.800;18.102;2023-05-07T03:26:18;22.42;;;14.48;;
43676;SDS011;29275;48.800;18.102;2023-05-07T03:29:21;23.80;;;15.20;;
43676;SDS011;29275;48.800;18.102;2023-05-07T03:32:23;28.20;;;15.60;;
43676;SDS011;29275;48.800;18.102;2023-05-07T03:35:27;27.20;;;14.90;;
43676;SDS011;29275;48.800;18.102;2023-05-07T03:38:30;23.83;;;14.65;;
43676;SDS011;29275;48.800;18.102;2023-05-07T03:41:33;22.27;;;14.25;;
43676;SDS011;29275;48.800;18.102;2023-05-07T03:44:36;21.20;;;14.43;;
43676;SDS011;29275;48.800;18.102;2023-05-07T03:47:39;21.88;;;14.48;;
43676;SDS011;29275;48.800;18.102;2023-05-07T03:50:43;29.05;;;14.82;;
43676;SDS011;29275;48.800;18.102;2023-05-07T03:53:47;23.63;;;14.73;;
43676;SDS011;29275;48.800;18.102;2023-05-07T03:56:50;24.80;;;15.18;;
43676;SDS011;29275;48.800;18.102;2023-05-07T03:59:53;23.90;;;15.20;;
43676;SDS011;29275;48.800;18.102;2023-05-07T04:02:56;22.23;;;14.65;;
43676;SDS011;29275;48.800;18.102;2023-05-07T04:06:01;20.40;;;14.10;;
43676;SDS011;29275;48.800;18.102;2023-05-07T04:09:06;22.92;;;15.15;;
43676;SDS011;29275;48.800;18.102;2023-05-07T04:12:12;22.60;;;14.50;;
43676;SDS011;29275;48.800;18.102;2023-05-07T04:15:15;20.58;;;14.07;;
43676;SDS011;29275;48.800;18.102;2023-05-07T04:18:18;20.77;;;13.90;;
43676;SDS011;29275;48.800;18.102;2023-05-07T04:21:23;17.75;;;12.85;;
43676;SDS011;29275;48.800;18.102;2023-05-07T04:24:26;20.70;;;14.00;;
43676;SDS011;29275;48.800;18.102;2023-05-07T04:27:29;19.00;;;12.63;;
43676;SDS011;29275;48.800;18.102;2023-05-07T04:30:32;19.17;;;13.70;;
43676;SDS011;29275;48.800;18.102;2023-05-07T04:33:37;21.17;;;13.95;;
43676;SDS011;29275;48.800;18.102;2023-05-07T04:36:43;18.02;;;12.80;;
43676;SDS011;29275;48.800;18.102;2023-05-07T04:39:48;21.80;;;13.98;;
43676;SDS011;29275;48.800;18.102;2023-05-07T04:42:51;20.35;;;13.25;;
43676;SDS011;29275;48.800;18.102;2023-05-07T04:45:56;19.23;;;13.68;;
43676;SDS011;29275;48.800;18.102;2023-05-07T04:49:01;21.08;;;13.40;;
43676;SDS011;29275;48.800;18.102;2023-05-07T04:52:04;20.25;;;13.75;;
43676;SDS011;29275;48.800;18.102;2023-05-07T04:55:07;18.02;;;13.57;;
43676;SDS011;29275;48.800;18.102;2023-05-07T04:58:13;24.27;;;14.53;;
43676;SDS011;29275;48.800;18.102;2023-05-07T05:01:18;23.88;;;13.63;;
43676;SDS011;29275;48.800;18.102;2023-05-07T05:04:23;21.70;;;13.15;;
43676;SDS011;29275;48.800;18.102;2023-05-07T05:07:26;17.83;;;12.82;;
43676;SDS011;29275;48.800;18.102;2023-05-07T05:10:30;20.13;;;13.00;;
43676;SDS011;29275;48.800;18.102;2023-05-07T05:13:32;18.27;;;12.38;;
43676;SDS011;29275;48.800;18.102;2023-05-07T05:16:41;17.95;;;11.80;;
43676;SDS011;29275;48.800;18.102;2023-05-07T05:19:45;21.85;;;12.48;;
43676;SDS011;29275;48.800;18.102;2023-05-07T05:22:48;18.80;;;12.25;;
43676;SDS011;29275;48.800;18.102;2023-05-07T05:25:55;20.02;;;12.20;;
43676;SDS011;29275;48.800;18.102;2023-05-07T05:29:04;19.65;;;12.65;;
43676;SDS011;29275;48.800;18.102;2023-05-07T05:32:07;17.98;;;11.20;;
43676;SDS011;29275;48.800;18.102;2023-05-07T05:35:10;18.48;;;11.70;;
43676;SDS011;29275;48.800;18.102;2023-05-07T05:38:15;15.65;;;11.57;;
43676;SDS011;29275;48.800;18.102;2023-05-07T05:41:18;15.95;;;11.48;;
43676;SDS011;29275;48.800;18.102;2023-05-07T05:44:21;20.45;;;12.35;;
43676;SDS011;29275;48.800;18.102;2023-05-07T05:47:23;19.42;;;12.30;;
43676;SDS011;29275;48.800;18.102;2023-05-07T05:50:29;16.70;;;11.23;;
43676;SDS011;29275;48.800;18.102;2023-05-07T05:53:33;17.17;;;11.15;;
43676;SDS011;29275;48.800;18.102;2023-05-07T05:56:37;16.15;;;10.90;;
43676;SDS011;29275;48.800;18.102;2023-05-07T05:59:40;18.23;;;10.77;;
43676;SDS011;29275;48.800;18.102;2023-05-07T06:02:43;18.35;;;10.57;;
43676;SDS011;29275;48.800;18.102;2023-05-07T06:05:49;15.25;;;10.23;;
43676;SDS011;29275;48.800;18.102;2023-05-07T06:08:57;14.23;;;9.48;;
43676;SDS011;29275;48.800;18.102;2023-05-07T06:12:08;13.88;;;9.48;;
43676;SDS011;29275;48.800;18.102;2023-05-07T06:15:11;13.85;;;9.52;;
43676;SDS011;29275;48.800;18.102;2023-05-07T06:18:15;13.07;;;9.70;;
43676;SDS011;29275;48.800;18.102;2023-05-07T06:21:18;11.75;;;8.40;;
43676;SDS011;29275;48.800;18.102;2023-05-07T06:24:22;11.82;;;8.15;;
43676;SDS011;29275;48.800;18.102;2023-05-07T06:27:26;12.32;;;7.95;;
43676;SDS011;29275;48.800;18.102;2023-05-07T06:30:31;12.98;;;7.10;;
43676;SDS011;29275;48.800;18.102;2023-05-07T06:33:34;10.25;;;6.65;;
43676;SDS011;29275;48.800;18.102;2023-05-07T06:36:37;13.07;;;7.95;;
43676;SDS011;29275;48.800;18.102;2023-05-07T06:39:49;10.35;;;6.93;;
43676;SDS011;29275;48.800;18.102;2023-05-07T06:42:52;8.68;;;6.43;;
43676;SDS011;29275;48.800;18.102;2023-05-07T06:46:18;9.35;;;6.85;;
43676;SDS011;29275;48.800;18.102;2023-05-07T06:49:21;11.10;;;6.88;;
43676;SDS011;29275;48.800;18.102;2023-05-07T06:52:26;11.52;;;6.47;;
43676;SDS011;29275;48.800;18.102;2023-05-07T06:55:30;9.57;;;6.97;;
43676;SDS011;29275;48.800;18.102;2023-05-07T06:58:33;8.60;;;6.10;;
43676;SDS011;29275;48.800;18.102;2023-05-07T07:01:37;9.63;;;6.35;;
43676;SDS011;29275;48.800;18.102;2023-05-07T07:04:42;8.38;;;6.65;;
43676;SDS011;29275;48.800;18.102;2023-05-07T07:07:45;8.35;;;5.82;;
43676;SDS011;29275;48.800;18.102;2023-05-07T07:10:57;9.23;;;6.82;;
43676;SDS011;29275;48.800;18.102;2023-05-07T07:14:00;9.52;;;6.25;;
43676;SDS011;29275;48.800;18.102;2023-05-07T07:17:06;11.70;;;6.40;;
43676;SDS011;29275;48.800;18.102;2023-05-07T07:20:09;8.52;;;6.22;;
43676;SDS011;29275;48.800;18.102;2023-05-07T07:23:15;10.20;;;6.97;;
43676;SDS011;29275;48.800;18.102;2023-05-07T07:26:18;8.80;;;5.78;;
43676;SDS011;29275;48.800;18.102;2023-05-07T07:29:20;8.20;;;5.40;;
43676;SDS011;29275;48.800;18.102;2023-05-07T07:32:24;7.45;;;5.32;;
43676;SDS011;29275;48.800;18.102;2023-05-07T07:35:29;8.15;;;5.78;;
43676;SDS011;29275;48.800;18.102;2023-05-07T07:38:33;7.53;;;5.47;;
43676;SDS011;29275;48.800;18.102;2023-05-07T07:41:36;7.03;;;5.18;;
43676;SDS011;29275;48.800;18.102;2023-05-07T07:44:40;10.90;;;5.88;;
43676;SDS011;29275;48.800;18.102;2023-05-07T07:47:46;8.10;;;5.53;;
43676;SDS011;29275;48.800;18.102;2023-05-07T07:50:50;8.98;;;6.20;;
43676;SDS011;29275;48.800;18.102;2023-05-07T07:53:57;8.93;;;6.45;;
43676;SDS011;29275;48.800;18.102;2023-05-07T07:57:01;8.75;;;6.40;;
43676;SDS011;29275;48.800;18.102;2023-05-07T08:00:07;8.57;;;5.72;;
43676;SDS011;29275;48.800;18.102;2023-05-07T08:03:17;6.70;;;5.45;;
43676;SDS011;29275;48.800;18.102;2023-05-07T08:06:26;10.10;;;6.22;;
43676;SDS011;29275;48.800;18.102;2023-05-07T08:09:30;9.35;;;5.93;;
43676;SDS011;29275;48.800;18.102;2023-05-07T08:12:34;9.45;;;6.05;;
43676;SDS011;29275;48.800;18.102;2023-05-07T08:15:38;8.48;;;5.72;;
43676;SDS011;29275;48.800;18.102;2023-05-07T08:18:41;13.93;;;5.57;;
43676;SDS011;29275;48.800;18.102;2023-05-07T08:21:44;7.18;;;5.35;;
43676;SDS011;29275;48.800;18.102;2023-05-07T08:24:51;9.02;;;5.97;;
43676;SDS011;29275;48.800;18.102;2023-05-07T08:27:56;8.05;;;5.50;;
43676;SDS011;29275;48.800;18.102;2023-05-07T08:31:00;6.53;;;4.47;;
43676;SDS011;29275;48.800;18.102;2023-05-07T08:34:08;6.72;;;5.10;;
43676;SDS011;29275;48.800;18.102;2023-05-07T08:37:15;7.93;;;4.47;;
43676;SDS011;29275;48.800;18.102;2023-05-07T08:40:20;6.18;;;4.57;;
43676;SDS011;29275;48.800;18.102;2023-05-07T08:43:26;6.97;;;4.68;;
43676;SDS011;29275;48.800;18.102;2023-05-07T08:46:31;7.72;;;5.35;;
43676;SDS011;29275;48.800;18.102;2023-05-07T08:49:34;7.10;;;4.95;;
43676;SDS011;29275;48.800;18.102;2023-05-07T08:52:40;5.65;;;4.40;;
43676;SDS011;29275;48.800;18.102;2023-05-07T08:55:43;6.38;;;3.88;;
43676;SDS011;29275;48.800;18.102;2023-05-07T08:58:47;6.45;;;4.20;;
43676;SDS011;29275;48.800;18.102;2023-05-07T09:01:50;10.38;;;4.43;;
43676;SDS011;29275;48.800;18.102;2023-05-07T09:04:54;6.65;;;3.95;;
43676;SDS011;29275;48.800;18.102;2023-05-07T09:08:02;6.13;;;3.92;;
43676;SDS011;29275;48.800;18.102;2023-05-07T09:11:05;5.47;;;3.95;;
43676;SDS011;29275;48.800;18.102;2023-05-07T09:14:08;5.18;;;3.67;;
43676;SDS011;29275;48.800;18.102;2023-05-07T09:17:15;5.35;;;4.30;;
43676;SDS011;29275;48.800;18.102;2023-05-07T09:20:19;6.55;;;3.85;;
43676;SDS011;29275;48.800;18.102;2023-05-07T09:23:23;6.22;;;4.05;;
43676;SDS011;29275;48.800;18.102;2023-05-07T09:26:26;5.07;;;3.42;;
43676;SDS011;29275;48.800;18.102;2023-05-07T09:29:30;4.90;;;3.78;;
43676;SDS011;29275;48.800;18.102;2023-05-07T09:32:39;3.85;;;3.00;;
43676;SDS011;29275;48.800;18.102;2023-05-07T09:35:50;3.72;;;2.83;;
43676;SDS011;29275;48.800;18.102;2023-05-07T09:38:55;6.05;;;3.47;;
43676;SDS011;29275;48.800;18.102;2023-05-07T09:41:59;3.00;;;2.40;;
43676;SDS011;29275;48.800;18.102;2023-05-07T09:45:08;4.43;;;2.78;;
43676;SDS011;29275;48.800;18.102;2023-05-07T09:48:13;7.50;;;3.00;;
43676;SDS011;29275;48.800;18.102;2023-05-07T09:54:54;4.50;;;2.90;;
43676;SDS011;29275;48.800;18.102;2023-05-07T09:58:03;3.78;;;2.80;;
43676;SDS011;29275;48.800;18.102;2023-05-07T10:01:08;3.72;;;2.63;;
43676;SDS011;29275;48.800;18.102;2023-05-07T10:04:15;4.57;;;2.65;;
43676;SDS011;29275;48.800;18.102;2023-05-07T10:07:19;4.45;;;2.88;;
43676;SDS011;29275;48.800;18.102;2023-05-07T10:10:26;3.92;;;2.50;;
43676;SDS011;29275;48.800;18.102;2023-05-07T10:13:30;3.70;;;2.72;;
43676;SDS011;29275;48.800;18.102;2023-05-07T10:16:36;4.20;;;2.70;;
43676;SDS011;29275;48.800;18.102;2023-05-07T10:19:44;2.83;;;2.03;;
43676;SDS011;29275;48.800;18.102;2023-05-07T10:22:48;5.35;;;2.60;;
43676;SDS011;29275;48.800;18.102;2023-05-07T10:25:57;3.08;;;2.10;;
43676;SDS011;29275;48.800;18.102;2023-05-07T10:29:16;3.35;;;1.95;;
43676;SDS011;29275;48.800;18.102;2023-05-07T10:32:42;2.78;;;1.90;;
43676;SDS011;29275;48.800;18.102;2023-05-07T10:35:57;3.72;;;1.80;;
43676;SDS011;29275;48.800;18.102;2023-05-07T10:42:09;2.88;;;1.80;;
43676;SDS011;29275;48.800;18.102;2023-05-07T10:45:21;2.42;;;1.70;;
43676;SDS011;29275;48.800;18.102;2023-05-07T10:48:26;2.65;;;1.77;;
43676;SDS011;29275;48.800;18.102;2023-05-07T10:51:38;2.20;;;1.58;;
43676;SDS011;29275;48.800;18.102;2023-05-07T10:55:18;3.58;;;1.83;;
43676;SDS011;29275;48.800;18.102;2023-05-07T10:58:33;3.13;;;2.15;;
43676;SDS011;29275;48.800;18.102;2023-05-07T11:01:54;3.05;;;1.85;;
43676;SDS011;29275;48.800;18.102;2023-05-07T11:05:21;2.05;;;1.50;;
43676;SDS011;29275;48.800;18.102;2023-05-07T11:09:06;2.70;;;1.75;;
43676;SDS011;29275;48.800;18.102;2023-05-07T11:12:16;2.83;;;1.80;;
43676;SDS011;29275;48.800;18.102;2023-05-07T11:15:36;4.22;;;1.83;;
43676;SDS011;29275;48.800;18.102;2023-05-07T11:18:51;3.40;;;1.55;;
43676;SDS011;29275;48.800;18.102;2023-05-07T11:22:04;3.08;;;1.60;;
43676;SDS011;29275;48.800;18.102;2023-05-07T11:25:19;2.13;;;1.65;;
43676;SDS011;29275;48.800;18.102;2023-05-07T11:28:29;3.00;;;1.77;;
43676;SDS011;29275;48.800;18.102;2023-05-07T11:31:37;4.03;;;1.90;;
43676;SDS011;29275;48.800;18.102;2023-05-07T11:34:41;2.55;;;1.73;;
43676;SDS011;29275;48.800;18.102;2023-05-07T11:37:44;2.03;;;1.67;;
43676;SDS011;29275;48.800;18.102;2023-05-07T11:40:52;3.40;;;1.55;;
43676;SDS011;29275;48.800;18.102;2023-05-07T11:43:57;2.97;;;1.98;;
43676;SDS011;29275;48.800;18.102;2023-05-07T11:47:00;2.78;;;1.85;;
43676;SDS011;29275;48.800;18.102;2023-05-07T11:50:05;2.95;;;2.08;;
43676;SDS011;29275;48.800;18.102;2023-05-07T11:53:10;3.95;;;2.13;;
43676;SDS011;29275;48.800;18.102;2023-05-07T11:56:16;2.97;;;1.90;;
43676;SDS011;29275;48.800;18.102;2023-05-07T11:59:19;3.45;;;2.15;;
43676;SDS011;29275;48.800;18.102;2023-05-07T12:02:22;3.42;;;2.28;;
43676;SDS011;29275;48.800;18.102;2023-05-07T12:05:28;3.97;;;2.53;;
43676;SDS011;29275;48.800;18.102;2023-05-07T12:08:31;2.97;;;2.10;;
43676;SDS011;29275;48.800;18.102;2023-05-07T12:11:38;3.28;;;2.80;;
43676;SDS011;29275;48.800;18.102;2023-05-07T12:14:42;3.90;;;2.85;;
43676;SDS011;29275;48.800;18.102;2023-05-07T12:17:46;7.22;;;3.33;;
43676;SDS011;29275;48.800;18.102;2023-05-07T12:20:49;4.80;;;3.22;;
43676;SDS011;29275;48.800;18.102;2023-05-07T12:23:53;5.20;;;3.50;;
43676;SDS011;29275;48.800;18.102;2023-05-07T12:26:56;7.22;;;4.25;;
43676;SDS011;29275;48.800;18.102;2023-05-07T12:30:01;6.15;;;4.30;;
43676;SDS011;29275;48.800;18.102;2023-05-07T12:33:04;5.70;;;3.45;;
43676;SDS011;29275;48.800;18.102;2023-05-07T12:36:07;7.32;;;4.63;;
43676;SDS011;29275;48.800;18.102;2023-05-07T12:39:10;5.70;;;4.25;;
43676;SDS011;29275;48.800;18.102;2023-05-07T12:42:16;8.65;;;4.32;;
43676;SDS011;29275;48.800;18.102;2023-05-07T12:45:22;6.60;;;4.85;;
43676;SDS011;29275;48.800;18.102;2023-05-07T12:48:25;6.75;;;5.03;;
43676;SDS011;29275;48.800;18.102;2023-05-07T12:51:30;9.30;;;5.15;;
43676;SDS011;29275;48.800;18.102;2023-05-07T12:54:34;8.38;;;5.00;;
43676;SDS011;29275;48.800;18.102;2023-05-07T12:57:41;5.72;;;4.75;;
43676;SDS011;29275;48.800;18.102;2023-05-07T13:00:45;7.70;;;5.05;;
43676;SDS011;29275;48.800;18.102;2023-05-07T13:03:50;7.40;;;4.93;;
43676;SDS011;29275;48.800;18.102;2023-05-07T13:06:53;6.40;;;5.32;;
43676;SDS011;29275;48.800;18.102;2023-05-07T13:09:57;8.02;;;5.18;;
43676;SDS011;29275;48.800;18.102;2023-05-07T13:13:00;6.03;;;4.63;;
43676;SDS011;29275;48.800;18.102;2023-05-07T13:16:03;6.75;;;5.47;;
43676;SDS011;29275;48.800;18.102;2023-05-07T13:19:07;5.55;;;3.97;;
43676;SDS011;29275;48.800;18.102;2023-05-07T13:22:10;6.10;;;3.38;;
43676;SDS011;29275;48.800;18.102;2023-05-07T13:25:13;4.05;;;3.15;;
43676;SDS011;29275;48.800;18.102;2023-05-07T13:28:16;4.38;;;3.30;;
43676;SDS011;29275;48.800;18.102;2023-05-07T13:31:20;4.45;;;3.70;;
43676;SDS011;29275;48.800;18.102;2023-05-07T13:34:23;4.95;;;3.67;;
43676;SDS011;29275;48.800;18.102;2023-05-07T13:37:26;10.18;;;3.95;;
43676;SDS011;29275;48.800;18.102;2023-05-07T13:40:29;5.25;;;3.70;;
43676;SDS011;29275;48.800;18.102;2023-05-07T13:43:32;4.65;;;3.10;;
43676;SDS011;29275;48.800;18.102;2023-05-07T13:46:35;4.78;;;3.65;;
43676;SDS011;29275;48.800;18.102;2023-05-07T13:49:38;4.50;;;3.20;;
43676;SDS011;29275;48.800;18.102;2023-05-07T13:52:41;3.90;;;2.90;;
43676;SDS011;29275;48.800;18.102;2023-05-07T13:55:48;5.53;;;3.38;;
43676;SDS011;29275;48.800;18.102;2023-05-07T13:58:51;4.60;;;2.80;;
43676;SDS011;29275;48.800;18.102;2023-05-07T14:02:01;6.25;;;3.08;;
43676;SDS011;29275;48.800;18.102;2023-05-07T14:05:04;3.58;;;2.65;;
43676;SDS011;29275;48.800;18.102;2023-05-07T14:08:07;4.38;;;3.13;;
43676;SDS011;29275;48.800;18.102;2023-05-07T14:11:10;4.60;;;3.03;;
43676;SDS011;29275;48.800;18.102;2023-05-07T14:14:13;4.43;;;3.20;;
43676;SDS011;29275;48.800;18.102;2023-05-07T14:17:19;4.55;;;3.22;;
43676;SDS011;29275;48.800;18.102;2023-05-07T14:20:22;4.78;;;3.30;;
43676;SDS011;29275;48.800;18.102;2023-05-07T14:23:25;4.72;;;3.45;;
43676;SDS011;29275;48.800;18.102;2023-05-07T14:26:28;5.38;;;3.42;;
43676;SDS011;29275;48.800;18.102;2023-05-07T14:29:32;3.47;;;2.80;;
43676;SDS011;29275;48.800;18.102;2023-05-07T14:32:35;5.18;;;3.72;;
43676;SDS011;29275;48.800;18.102;2023-05-07T14:35:38;3.67;;;2.72;;
43676;SDS011;29275;48.800;18.102;2023-05-07T14:38:41;4.28;;;2.88;;
43676;SDS011;29275;48.800;18.102;2023-05-07T14:41:44;4.25;;;2.70;;
43676;SDS011;29275;48.800;18.102;2023-05-07T14:44:47;3.58;;;2.53;;
43676;SDS011;29275;48.800;18.102;2023-05-07T14:47:51;5.05;;;3.17;;
43676;SDS011;29275;48.800;18.102;2023-05-07T14:50:54;3.83;;;2.90;;
43676;SDS011;29275;48.800;18.102;2023-05-07T14:53:58;5.53;;;3.15;;
43676;SDS011;29275;48.800;18.102;2023-05-07T14:57:01;5.82;;;3.60;;
43676;SDS011;29275;48.800;18.102;2023-05-07T15:00:04;3.85;;;2.80;;
43676;SDS011;29275;48.800;18.102;2023-05-07T15:03:09;4.78;;;3.30;;
43676;SDS011;29275;48.800;18.102;2023-05-07T15:06:16;4.43;;;3.35;;
43676;SDS011;29275;48.800;18.102;2023-05-07T15:09:19;5.45;;;3.92;;
43676;SDS011;29275;48.800;18.102;2023-05-07T15:12:22;5.30;;;3.63;;
43676;SDS011;29275;48.800;18.102;2023-05-07T15:15:25;3.90;;;3.25;;
43676;SDS011;29275;48.800;18.102;2023-05-07T15:21:34;5.32;;;3.60;;
43676;SDS011;29275;48.800;18.102;2023-05-07T15:24:39;4.95;;;3.60;;
43676;SDS011;29275;48.800;18.102;2023-05-07T15:27:43;7.22;;;3.88;;
43676;SDS011;29275;48.800;18.102;2023-05-07T15:30:46;4.80;;;3.92;;
43676;SDS011;29275;48.800;18.102;2023-05-07T15:33:49;5.43;;;3.97;;
43676;SDS011;29275;48.800;18.102;2023-05-07T15:36:54;5.13;;;4.05;;
43676;SDS011;29275;48.800;18.102;2023-05-07T15:39:59;4.82;;;3.75;;
43676;SDS011;29275;48.800;18.102;2023-05-07T15:43:04;5.55;;;4.30;;
43676;SDS011;29275;48.800;18.102;2023-05-07T15:46:07;8.90;;;6.22;;
43676;SDS011;29275;48.800;18.102;2023-05-07T15:49:10;8.02;;;5.05;;
43676;SDS011;29275;48.800;18.102;2023-05-07T15:52:13;7.32;;;5.07;;
43676;SDS011;29275;48.800;18.102;2023-05-07T15:55:17;6.10;;;5.18;;
43676;SDS011;29275;48.800;18.102;2023-05-07T15:58:20;6.50;;;4.85;;
43676;SDS011;29275;48.800;18.102;2023-05-07T16:01:23;7.78;;;5.93;;
43676;SDS011;29275;48.800;18.102;2023-05-07T16:04:27;11.00;;;6.70;;
43676;SDS011;29275;48.800;18.102;2023-05-07T16:07:30;6.93;;;5.30;;
43676;SDS011;29275;48.800;18.102;2023-05-07T16:10:33;6.72;;;5.13;;
43676;SDS011;29275;48.800;18.102;2023-05-07T16:13:36;7.20;;;5.18;;
43676;SDS011;29275;48.800;18.102;2023-05-07T16:16:39;6.93;;;4.88;;
43676;SDS011;29275;48.800;18.102;2023-05-07T16:19:42;6.70;;;4.60;;
43676;SDS011;29275;48.800;18.102;2023-05-07T16:22:45;6.18;;;5.07;;
43676;SDS011;29275;48.800;18.102;2023-05-07T16:25:48;6.70;;;4.70;;
43676;SDS011;29275;48.800;18.102;2023-05-07T16:28:51;6.53;;;5.10;;
43676;SDS011;29275;48.800;18.102;2023-05-07T16:31:56;6.45;;;5.13;;
43676;SDS011;29275;48.800;18.102;2023-05-07T16:34:59;8.57;;;4.68;;
43676;SDS011;29275;48.800;18.102;2023-05-07T16:38:02;9.52;;;6.22;;
43676;SDS011;29275;48.800;18.102;2023-05-07T16:41:11;6.85;;;5.20;;
43676;SDS011;29275;48.800;18.102;2023-05-07T16:44:15;7.25;;;5.22;;
43676;SDS011;29275;48.800;18.102;2023-05-07T16:47:19;6.93;;;4.72;;
43676;SDS011;29275;48.800;18.102;2023-05-07T16:50:22;6.43;;;4.93;;
43676;SDS011;29275;48.800;18.102;2023-05-07T16:53:25;6.93;;;5.30;;
43676;SDS011;29275;48.800;18.102;2023-05-07T16:56:29;7.00;;;4.35;;
43676;SDS011;29275;48.800;18.102;2023-05-07T16:59:32;5.57;;;4.53;;
43676;SDS011;29275;48.800;18.102;2023-05-07T17:02:35;6.90;;;5.07;;
43676;SDS011;29275;48.800;18.102;2023-05-07T17:05:38;7.05;;;4.15;;
43676;SDS011;29275;48.800;18.102;2023-05-07T17:08:41;5.63;;;3.95;;
43676;SDS011;29275;48.800;18.102;2023-05-07T17:11:44;7.72;;;4.38;;
43676;SDS011;29275;48.800;18.102;2023-05-07T17:14:47;7.68;;;4.72;;
43676;SDS011;29275;48.800;18.102;2023-05-07T17:17:50;5.50;;;3.88;;
43676;SDS011;29275;48.800;18.102;2023-05-07T17:20:53;5.05;;;4.22;;
43676;SDS011;29275;48.800;18.102;2023-05-07T17:23:56;6.00;;;3.42;;
43676;SDS011;29275;48.800;18.102;2023-05-07T17:26:59;5.53;;;4.40;;
43676;SDS011;29275;48.800;18.102;2023-05-07T17:30:02;5.10;;;3.67;;
43676;SDS011;29275;48.800;18.102;2023-05-07T17:33:05;6.15;;;3.78;;
43676;SDS011;29275;48.800;18.102;2023-05-07T17:36:22;5.97;;;4.13;;
43676;SDS011;29275;48.800;18.102;2023-05-07T17:39:24;3.85;;;2.88;;
43676;SDS011;29275;48.800;18.102;2023-05-07T17:42:28;4.32;;;3.10;;
43676;SDS011;29275;48.800;18.102;2023-05-07T17:45:31;4.40;;;2.47;;
43676;SDS011;29275;48.800;18.102;2023-05-07T17:48:34;4.28;;;3.15;;
43676;SDS011;29275;48.800;18.102;2023-05-07T17:51:37;4.55;;;3.13;;
43676;SDS011;29275;48.800;18.102;2023-05-07T17:57:57;5.07;;;3.33;;
43676;SDS011;29275;48.800;18.102;2023-05-07T18:01:00;3.90;;;3.05;;
43676;SDS011;29275;48.800;18.102;2023-05-07T18:04:03;4.43;;;2.97;;
43676;SDS011;29275;48.800;18.102;2023-05-07T18:07:06;4.50;;;3.10;;
43676;SDS011;29275;48.800;18.102;2023-05-07T18:10:09;4.78;;;3.33;;
43676;SDS011;29275;48.800;18.102;2023-05-07T18:13:12;5.60;;;3.25;;
43676;SDS011;29275;48.800;18.102;2023-05-07T18:16:16;5.32;;;3.20;;
43676;SDS011;29275;48.800;18.102;2023-05-07T18:19:20;5.40;;;3.55;;
43676;SDS011;29275;48.800;18.102;2023-05-07T18:22:23;7.15;;;3.00;;